Portada
METAR-TAF:

METAR-TAF

Aeropuertos :

Aeropuerto de Tetuán-Sania Ramel

Tetuán, Marruecos

latitud: 35-35N, longitud: 005-20W, altitud: 10 m

Observación

El informe se hizo hace 23 minutos, a las 04:11 UTC
Viento 3 kt del este-sureste, variando entre este y sur-sureste
Temperatura 23°C
Humedad 94%
Presión 1012 hPa
Visibilidad: 3000 m
Cielo nuboso a una altura de 600 ft
Nubes dispersas a una altura de 2000 ft
neblina

METAR: GMTN 300411Z 11003KT 090V150 3000 BR BKN006 SCT020 23/22 Q1012 NOSIG M2

Hora: 05:34 (04:34 UTC)


TAF: falta

Observaciones y pronósticos meteorológicos de más de 4000 aeropuertos (mensajes METAR y TAF).

Los puntos amarillos y rojos representan las estaciones disponibles.

Ponga el ratón en el punto deseado para ver el nombre de la estación.

Haga clic para ver las observaciones y los pronósticos meteorológicos.

Para cambiar el mapa : haga clic en los botones verdes con una cruz de color negro para hacer un zoom, en el botón verde con un guión para alejar o en las flechas verdes para mapas adyacentes.


METAR-TAF: